PWSweather.com
Personal Weather Stations
Station Observations
IRIVIRED2
île Maurice, Petit RaffrayMU

île MauricePetit RaffrayMU

Lat: -20.02533, Lon: 57.61883

Elevation: 183

Station Type: Davis Vantage Pro2 plus

http://www.meteomauritius.altervista.org

Latest ConditionsUpdated 4:00:01 PM GMT+04:04 Sunday, Mar 24, 2019
Currently Today's Max Today's Min Today's Average
Temperature 85.3°F29.6°C 86.6°F30.3°C 76.3°F24.6°C 81.7°F27.6°C
Dew Point 76.4°F24.7°C 78.3°F25.7°C 67.9°F19.9°C 74.9°F23.8°C
Winds 10.4 mph SE16.7 kmh SE 13.8 mph -22.2 kmh - - 5.5 mph 8.9 kmh
Wind Gusts 19.6 mph31.5 kmh 24.2 mph38.9 kmh - -
Humidity 75% 87% 73% 80%
Pressure 29.78 in1008.5 mb 29.89 in1012.2 mb 29.78 in1008.5 mb -
Precipitation - 0.05 in1.3 mm - -
Hour Temp Dew Point Humidity Winds Wind Gusts Pressure Precip Precip Rate Daily Precip Total
04:00 PM 85.3°F29.6°C 76.4°F24.7°C 75% 10.4 mph SE16.7 kmh SE 19.6 mph31.5 kmh 29.78 in1008.5 mb - 0.00 in0.0 mm 0.05 in1.3 mm
03:50 PM 85.4°F29.7°C 76.6°F24.8°C 75% 11.5 mph SE18.5 kmh SE 20.7 mph33.3 kmh 29.78 in1008.5 mb - 0.00 in0.0 mm 0.05 in1.3 mm
03:40 PM 85.4°F29.7°C 77.0°F25.0°C 76% 11.5 mph SE18.5 kmh SE 20.7 mph33.3 kmh 29.78 in1008.5 mb - 0.00 in0.0 mm 0.05 in1.3 mm
03:30 PM 85.2°F29.6°C 76.8°F24.9°C 76% 10.4 mph SE16.7 kmh SE 15.0 mph24.1 kmh 29.78 in1008.5 mb - 0.00 in0.0 mm 0.05 in1.3 mm
03:20 PM 85.4°F29.7°C 76.6°F24.8°C 75% 9.2 mph SE14.8 kmh SE 16.1 mph25.9 kmh 29.78 in1008.5 mb - 0.00 in0.0 mm 0.05 in1.3 mm
03:10 PM 85.7°F29.8°C 76.5°F24.7°C 74% 9.2 mph SE14.8 kmh SE 13.8 mph22.2 kmh 29.78 in1008.5 mb - 0.00 in0.0 mm 0.05 in1.3 mm
03:00 PM 86.0°F30.0°C 77.1°F25.1°C 75% 9.2 mph SE14.8 kmh SE 17.3 mph27.8 kmh 29.78 in1008.5 mb - 0.00 in0.0 mm 0.05 in1.3 mm
02:50 PM 85.9°F29.9°C 77.5°F25.3°C 76% 4.6 mph SE7.4 kmh SE 11.5 mph18.5 kmh 29.78 in1008.5 mb - 0.00 in0.0 mm 0.05 in1.3 mm
02:40 PM 86.3°F30.2°C 77.4°F25.2°C 75% 10.4 mph SE16.7 kmh SE 21.9 mph35.2 kmh 29.78 in1008.5 mb - 0.00 in0.0 mm 0.05 in1.3 mm
02:30 PM 86.3°F30.2°C 76.6°F24.8°C 73% 9.2 mph SE14.8 kmh SE 12.7 mph20.4 kmh 29.78 in1008.5 mb - 0.00 in0.0 mm 0.05 in1.3 mm
02:20 PM 86.4°F30.2°C 77.5°F25.3°C 75% 8.1 mph SE13.0 kmh SE 13.8 mph22.2 kmh 29.79 in1008.8 mb - 0.00 in0.0 mm 0.05 in1.3 mm
02:10 PM 86.0°F30.0°C 77.1°F25.1°C 75% 8.1 mph ESE13.0 kmh ESE 11.5 mph18.5 kmh 29.79 in1008.8 mb - 0.00 in0.0 mm 0.05 in1.3 mm
02:00 PM 86.0°F30.0°C 77.2°F25.1°C 75% 11.5 mph ESE18.5 kmh ESE 20.7 mph33.3 kmh 29.80 in1009.1 mb - 0.00 in0.0 mm 0.05 in1.3 mm
01:50 PM 85.8°F29.9°C 77.8°F25.4°C 77% 8.1 mph SE13.0 kmh SE 15.0 mph24.1 kmh 29.80 in1009.1 mb - 0.00 in0.0 mm 0.05 in1.3 mm
01:40 PM 85.7°F29.8°C 77.3°F25.2°C 76% 10.4 mph ESE16.7 kmh ESE 17.3 mph27.8 kmh 29.80 in1009.1 mb - 0.00 in0.0 mm 0.05 in1.3 mm
01:30 PM 85.7°F29.8°C 76.5°F24.7°C 74% 12.7 mph SE20.4 kmh SE 23.0 mph37.0 kmh 29.80 in1009.1 mb - 0.00 in0.0 mm 0.05 in1.3 mm
01:20 PM 85.6°F29.8°C 78.3°F25.7°C 79% 9.2 mph SE14.8 kmh SE 19.6 mph31.5 kmh 29.81 in1009.5 mb - 0.00 in0.0 mm 0.05 in1.3 mm
01:10 PM 84.6°F29.2°C 78.1°F25.6°C 81% 11.5 mph SE18.5 kmh SE 15.0 mph24.1 kmh 29.81 in1009.5 mb - 0.00 in0.0 mm 0.05 in1.3 mm
01:00 PM 83.9°F28.8°C 78.2°F25.7°C 83% 5.8 mph ESE9.3 kmh ESE 11.5 mph18.5 kmh 29.81 in1009.5 mb - 0.02 in0.5 mm 0.05 in1.3 mm
12:50 PM 86.5°F30.3°C 77.6°F25.3°C 75% 12.7 mph SE20.4 kmh SE 19.6 mph31.5 kmh 29.82 in1009.8 mb - 0.00 in0.0 mm 0.03 in0.8 mm
12:40 PM 86.6°F30.3°C 77.7°F25.4°C 75% 8.1 mph SE13.0 kmh SE 11.5 mph18.5 kmh 29.81 in1009.5 mb - 0.00 in0.0 mm 0.03 in0.8 mm
12:30 PM 86.3°F30.2°C 77.0°F25.0°C 74% 13.8 mph ESE22.2 kmh ESE 18.4 mph29.6 kmh 29.82 in1009.8 mb - 0.00 in0.0 mm 0.03 in0.8 mm
12:20 PM 86.4°F30.2°C 77.1°F25.1°C 74% 10.4 mph SE16.7 kmh SE 24.2 mph38.9 kmh 29.82 in1009.8 mb - 0.00 in0.0 mm 0.03 in0.8 mm
12:10 PM 86.4°F30.2°C 76.7°F24.8°C 73% 9.2 mph SE14.8 kmh SE 20.7 mph33.3 kmh 29.83 in1010.2 mb - 0.00 in0.0 mm 0.03 in0.8 mm
12:00 PM 86.3°F30.2°C 77.0°F25.0°C 74% 10.4 mph ESE16.7 kmh ESE 18.4 mph29.6 kmh 29.83 in1010.2 mb - 0.00 in0.0 mm 0.03 in0.8 mm
11:50 AM 85.5°F29.7°C 77.1°F25.1°C 76% 11.5 mph SE18.5 kmh SE 19.6 mph31.5 kmh 29.83 in1010.2 mb - 0.00 in0.0 mm 0.03 in0.8 mm
11:40 AM 85.9°F29.9°C 77.1°F25.1°C 75% 10.4 mph SE16.7 kmh SE 16.1 mph25.9 kmh 29.84 in1010.5 mb - 0.00 in0.0 mm 0.03 in0.8 mm
11:30 AM 85.9°F29.9°C 77.5°F25.3°C 76% 11.5 mph ESE18.5 kmh ESE 15.0 mph24.1 kmh 29.84 in1010.5 mb - 0.00 in0.0 mm 0.03 in0.8 mm
11:20 AM 85.7°F29.8°C 77.7°F25.4°C 77% 8.1 mph SE13.0 kmh SE 11.5 mph18.5 kmh 29.84 in1010.5 mb - 0.00 in0.0 mm 0.03 in0.8 mm
11:10 AM 85.3°F29.6°C 77.3°F25.2°C 77% 9.2 mph SE14.8 kmh SE 17.3 mph27.8 kmh 29.84 in1010.5 mb - 0.00 in0.0 mm 0.03 in0.8 mm
11:00 AM 84.8°F29.3°C 76.7°F24.8°C 77% 9.2 mph SE14.8 kmh SE 12.7 mph20.4 kmh 29.84 in1010.5 mb - 0.00 in0.0 mm 0.03 in0.8 mm
10:50 AM 85.5°F29.7°C 77.5°F25.3°C 77% 6.9 mph SE11.1 kmh SE 12.7 mph20.4 kmh 29.85 in1010.8 mb - 0.00 in0.0 mm 0.03 in0.8 mm
10:40 AM 86.1°F30.1°C 77.6°F25.3°C 76% 9.2 mph S14.8 kmh S 16.1 mph25.9 kmh 29.85 in1010.8 mb - 0.00 in0.0 mm 0.03 in0.8 mm
10:30 AM 85.5°F29.7°C 78.3°F25.7°C 79% 9.2 mph SE14.8 kmh SE 15.0 mph24.1 kmh 29.86 in1011.2 mb - 0.00 in0.0 mm 0.03 in0.8 mm
10:20 AM 85.5°F29.7°C 77.5°F25.3°C 77% 9.2 mph SE14.8 kmh SE 13.8 mph22.2 kmh 29.86 in1011.2 mb - 0.00 in0.0 mm 0.03 in0.8 mm
10:10 AM 85.4°F29.7°C 77.8°F25.4°C 78% 9.2 mph SE14.8 kmh SE 20.7 mph33.3 kmh 29.86 in1011.2 mb - 0.00 in0.0 mm 0.03 in0.8 mm
10:00 AM 84.6°F29.2°C 78.2°F25.7°C 81% 8.1 mph ESE13.0 kmh ESE 19.6 mph31.5 kmh 29.87 in1011.5 mb - 0.00 in0.0 mm 0.03 in0.8 mm
09:50 AM 83.8°F28.8°C 77.4°F25.2°C 81% 10.4 mph SE16.7 kmh SE 13.8 mph22.2 kmh 29.88 in1011.9 mb - 0.00 in0.0 mm 0.03 in0.8 mm
09:40 AM 83.6°F28.7°C 77.6°F25.3°C 82% 10.4 mph SE16.7 kmh SE 15.0 mph24.1 kmh 29.88 in1011.9 mb - 0.00 in0.0 mm 0.03 in0.8 mm
09:30 AM 83.4°F28.6°C 78.0°F25.6°C 84% 9.2 mph ESE14.8 kmh ESE 12.7 mph20.4 kmh 29.88 in1011.9 mb - 0.00 in0.0 mm 0.03 in0.8 mm
09:20 AM 83.5°F28.6°C 77.8°F25.4°C 83% 5.8 mph SE9.3 kmh SE 11.5 mph18.5 kmh 29.88 in1011.9 mb - 0.00 in0.0 mm 0.03 in0.8 mm
09:10 AM 83.0°F28.3°C 77.3°F25.2°C 83% 6.9 mph SE11.1 kmh SE 11.5 mph18.5 kmh 29.88 in1011.9 mb - 0.00 in0.0 mm 0.03 in0.8 mm
09:00 AM 82.7°F28.2°C 77.4°F25.2°C 84% 6.9 mph SE11.1 kmh SE 11.5 mph18.5 kmh 29.89 in1012.2 mb - 0.00 in0.0 mm 0.03 in0.8 mm
08:50 AM 82.0°F27.8°C 77.4°F25.2°C 86% 8.1 mph SE13.0 kmh SE 15.0 mph24.1 kmh 29.89 in1012.2 mb - 0.00 in0.0 mm 0.03 in0.8 mm
08:40 AM 81.4°F27.4°C 76.8°F24.9°C 86% 4.6 mph ESE7.4 kmh ESE 8.1 mph13.0 kmh 29.88 in1011.9 mb - 0.00 in0.0 mm 0.03 in0.8 mm
08:30 AM 80.5°F26.9°C 75.9°F24.4°C 86% 4.6 mph SE7.4 kmh SE 11.5 mph18.5 kmh 29.88 in1011.9 mb - 0.00 in0.0 mm 0.03 in0.8 mm
08:20 AM 80.0°F26.7°C 75.1°F23.9°C 85% 3.5 mph SE5.6 kmh SE 6.9 mph11.1 kmh 29.88 in1011.9 mb - 0.00 in0.0 mm 0.03 in0.8 mm
08:10 AM 79.5°F26.4°C 74.3°F23.5°C 84% 1.2 mph SSE1.9 kmh SSE 5.8 mph9.3 kmh 29.87 in1011.5 mb - 0.00 in0.0 mm 0.03 in0.8 mm
08:00 AM 79.1°F26.2°C 73.5°F23.1°C 83% Calm Calm -- 29.87 in1011.5 mb - 0.00 in0.0 mm 0.03 in0.8 mm
07:50 AM 78.7°F25.9°C 72.4°F22.4°C 81% 2.3 mph SE3.7 kmh SE 8.1 mph13.0 kmh 29.87 in1011.5 mb - 0.00 in0.0 mm 0.03 in0.8 mm
07:40 AM 78.4°F25.8°C 71.3°F21.8°C 79% Calm Calm 1.2 mph1.9 kmh 29.87 in1011.5 mb - 0.00 in0.0 mm 0.03 in0.8 mm
07:30 AM 78.2°F25.7°C 70.0°F21.1°C 76% 1.2 mph SE1.9 kmh SE 4.6 mph7.4 kmh 29.86 in1011.2 mb - 0.00 in0.0 mm 0.03 in0.8 mm
07:20 AM 77.9°F25.5°C 69.0°F20.6°C 74% Calm Calm -- 29.86 in1011.2 mb - 0.00 in0.0 mm 0.03 in0.8 mm
07:10 AM 77.5°F25.3°C 68.2°F20.1°C 73% Calm Calm -- 29.86 in1011.2 mb - 0.00 in0.0 mm 0.03 in0.8 mm
07:00 AM 77.5°F25.3°C 68.1°F20.1°C 73% Calm Calm -- 29.85 in1010.8 mb - 0.00 in0.0 mm 0.03 in0.8 mm
06:50 AM 77.3°F25.2°C 68.0°F20.0°C 73% Calm Calm -- 29.85 in1010.8 mb - 0.00 in0.0 mm 0.03 in0.8 mm
06:40 AM 77.1°F25.1°C 68.2°F20.1°C 74% 1.2 mph S1.9 kmh S 1.2 mph1.9 kmh 29.84 in1010.5 mb - 0.00 in0.0 mm 0.03 in0.8 mm
06:30 AM 76.8°F24.9°C 67.9°F19.9°C 74% Calm Calm 2.3 mph3.7 kmh 29.84 in1010.5 mb - 0.01 in0.3 mm 0.03 in0.8 mm
06:20 AM 76.6°F24.8°C 68.5°F20.3°C 76% Calm Calm -- 29.84 in1010.5 mb - 0.00 in0.0 mm 0.02 in0.5 mm
06:10 AM 76.5°F24.7°C 68.4°F20.2°C 76% Calm Calm -- 29.84 in1010.5 mb - 0.00 in0.0 mm 0.02 in0.5 mm
06:00 AM 76.5°F24.7°C 68.7°F20.4°C 77% 1.2 mph SSE1.9 kmh SSE -- 29.84 in1010.5 mb - 0.00 in0.0 mm 0.02 in0.5 mm
05:50 AM 76.5°F24.7°C 69.1°F20.6°C 78% 1.2 mph SSE1.9 kmh SSE 3.5 mph5.6 kmh 29.84 in1010.5 mb - 0.00 in0.0 mm 0.02 in0.5 mm
05:40 AM 76.4°F24.7°C 69.4°F20.8°C 79% 1.2 mph SSE1.9 kmh SSE -- 29.84 in1010.5 mb - 0.00 in0.0 mm 0.02 in0.5 mm
05:30 AM 76.4°F24.7°C 69.8°F21.0°C 80% Calm Calm -- 29.84 in1010.5 mb - 0.00 in0.0 mm 0.02 in0.5 mm
05:20 AM 76.3°F24.6°C 70.0°F21.1°C 81% Calm Calm -- 29.84 in1010.5 mb - 0.00 in0.0 mm 0.02 in0.5 mm
05:10 AM 76.3°F24.6°C 70.8°F21.6°C 83% Calm Calm -- 29.84 in1010.5 mb - 0.00 in0.0 mm 0.02 in0.5 mm
05:00 AM 76.4°F24.7°C 70.9°F21.6°C 83% Calm Calm 2.3 mph3.7 kmh 29.84 in1010.5 mb - 0.00 in0.0 mm 0.02 in0.5 mm
04:50 AM 76.5°F24.7°C 71.3°F21.8°C 84% 1.2 mph SE1.9 kmh SE 3.5 mph5.6 kmh 29.83 in1010.2 mb - 0.00 in0.0 mm 0.02 in0.5 mm
04:40 AM 76.7°F24.8°C 71.8°F22.1°C 85% Calm Calm -- 29.83 in1010.2 mb - 0.00 in0.0 mm 0.02 in0.5 mm
04:30 AM 76.8°F24.9°C 72.3°F22.4°C 86% 5.8 mph SE9.3 kmh SE 9.2 mph14.8 kmh 29.83 in1010.2 mb - 0.00 in0.0 mm 0.02 in0.5 mm
04:20 AM 77.9°F25.5°C 72.3°F22.4°C 83% 2.3 mph ESE3.7 kmh ESE 10.4 mph16.7 kmh 29.83 in1010.2 mb - 0.00 in0.0 mm 0.02 in0.5 mm
04:10 AM 77.9°F25.5°C 73.0°F22.8°C 85% 4.6 mph SE7.4 kmh SE 9.2 mph14.8 kmh 29.83 in1010.2 mb - 0.01 in0.3 mm 0.02 in0.5 mm
04:00 AM 78.3°F25.7°C 73.4°F23.0°C 85% 1.2 mph SE1.9 kmh SE 4.6 mph7.4 kmh 29.83 in1010.2 mb - 0.00 in0.0 mm 0.02 in0.5 mm
03:50 AM 78.4°F25.8°C 73.9°F23.3°C 86% Calm Calm 3.5 mph5.6 kmh 29.83 in1010.2 mb - 0.00 in0.0 mm 0.02 in0.5 mm
03:40 AM 78.7°F25.9°C 74.5°F23.6°C 87% 3.5 mph SE5.6 kmh SE 3.5 mph5.6 kmh 29.83 in1010.2 mb - 0.00 in0.0 mm 0.02 in0.5 mm
03:30 AM 80.2°F26.8°C 74.9°F23.8°C 84% 9.2 mph SE14.8 kmh SE 10.4 mph16.7 kmh 29.83 in1010.2 mb - 0.02 in0.5 mm 0.02 in0.5 mm
03:20 AM 81.0°F27.2°C 75.7°F24.3°C 84% 6.9 mph SE11.1 kmh SE 10.4 mph16.7 kmh 29.83 in1010.2 mb - 0.00 in0.0 mm 0.00 in0.0 mm
03:10 AM 80.9°F27.2°C 75.6°F24.2°C 84% 6.9 mph SE11.1 kmh SE 11.5 mph18.5 kmh 29.83 in1010.2 mb - 0.00 in0.0 mm 0.00 in0.0 mm
03:00 AM 80.8°F27.1°C 75.9°F24.4°C 85% 5.8 mph SE9.3 kmh SE 10.4 mph16.7 kmh 29.83 in1010.2 mb - 0.00 in0.0 mm 0.00 in0.0 mm
02:50 AM 80.7°F27.1°C 75.8°F24.3°C 85% 3.5 mph S5.6 kmh S 6.9 mph11.1 kmh 29.84 in1010.5 mb - 0.00 in0.0 mm 0.00 in0.0 mm
02:40 AM 80.6°F27.0°C 75.7°F24.3°C 85% 5.8 mph SE9.3 kmh SE 10.4 mph16.7 kmh 29.84 in1010.5 mb - 0.00 in0.0 mm 0.00 in0.0 mm
02:30 AM 80.4°F26.9°C 75.8°F24.3°C 86% 5.8 mph SE9.3 kmh SE 8.1 mph13.0 kmh 29.84 in1010.5 mb - 0.00 in0.0 mm 0.00 in0.0 mm
02:20 AM 80.3°F26.8°C 75.7°F24.3°C 86% 3.5 mph SE5.6 kmh SE 5.8 mph9.3 kmh 29.84 in1010.5 mb - 0.00 in0.0 mm 0.00 in0.0 mm
02:10 AM 80.2°F26.8°C 75.6°F24.2°C 86% Calm Calm 5.8 mph9.3 kmh 29.84 in1010.5 mb - 0.00 in0.0 mm 0.00 in0.0 mm
02:00 AM 80.0°F26.7°C 75.4°F24.1°C 86% 3.5 mph SE5.6 kmh SE 4.6 mph7.4 kmh 29.84 in1010.5 mb - 0.00 in0.0 mm 0.00 in0.0 mm
01:50 AM 79.9°F26.6°C 75.7°F24.3°C 87% 3.5 mph E5.6 kmh E 5.8 mph9.3 kmh 29.84 in1010.5 mb - 0.00 in0.0 mm 0.00 in0.0 mm
01:40 AM 79.7°F26.5°C 75.1°F23.9°C 86% 3.5 mph SE5.6 kmh SE 8.1 mph13.0 kmh 29.85 in1010.8 mb - 0.00 in0.0 mm 0.00 in0.0 mm
01:30 AM 79.7°F26.5°C 75.1°F23.9°C 86% 2.3 mph SE3.7 kmh SE 6.9 mph11.1 kmh 29.85 in1010.8 mb - 0.00 in0.0 mm 0.00 in0.0 mm
01:20 AM 79.7°F26.5°C 75.1°F23.9°C 86% 2.3 mph SE3.7 kmh SE 3.5 mph5.6 kmh 29.85 in1010.8 mb - 0.00 in0.0 mm 0.00 in0.0 mm
01:10 AM 79.6°F26.4°C 75.0°F23.9°C 86% Calm Calm 3.5 mph5.6 kmh 29.86 in1011.2 mb - 0.00 in0.0 mm 0.00 in0.0 mm
01:00 AM 79.7°F26.5°C 75.1°F23.9°C 86% Calm Calm 3.5 mph5.6 kmh 29.86 in1011.2 mb - 0.00 in0.0 mm 0.00 in0.0 mm
12:50 AM 79.8°F26.6°C 75.2°F24.0°C 86% 1.2 mph SE1.9 kmh SE 3.5 mph5.6 kmh 29.86 in1011.2 mb - 0.00 in0.0 mm 0.00 in0.0 mm
12:40 AM 79.9°F26.6°C 75.3°F24.1°C 86% 2.3 mph SE3.7 kmh SE 8.1 mph13.0 kmh 29.87 in1011.5 mb - 0.00 in0.0 mm 0.00 in0.0 mm
12:30 AM 79.9°F26.6°C 75.3°F24.1°C 86% 2.3 mph SE3.7 kmh SE 3.5 mph5.6 kmh 29.87 in1011.5 mb - 0.00 in0.0 mm 0.00 in0.0 mm
12:20 AM 79.8°F26.6°C 75.6°F24.2°C 87% 3.5 mph SSE5.6 kmh SSE 6.9 mph11.1 kmh 29.88 in1011.9 mb - 0.00 in0.0 mm 0.00 in0.0 mm
12:10 AM 79.7°F26.5°C 75.5°F24.2°C 87% 3.5 mph SE5.6 kmh SE 8.1 mph13.0 kmh 29.88 in1011.9 mb - 0.00 in0.0 mm 0.00 in0.0 mm
12:00 AM 79.4°F26.3°C 75.2°F24.0°C 87% 1.2 mph SE1.9 kmh SE -- 29.88 in1011.9 mb - 0.00 in0.0 mm 0.00 in0.0 mm